Archival Weather

Chicago O'Hare International

Chicago, Illinois (KORD)

Report from: Wednesday, August 23, 2023 6:51 AM CDT
Current time: Monday, July 22, 2024 6:51 AM CDT

Current weather – Weather history – Daily summaries
Weather forecast

Present weatherMist
Temperature25.6°C (78.1°F)
Dew point24.4°C (75.9°F)
Winds 6 kts (3.1 m/s, 6.9 mph) South-Southwest (210°)
Visibility6 mi. (9.7 km)
Clouds Few clouds 2,000 ft. (610 m)
Few clouds 14,000 ft. (4,267 m)
Altimeter30.01 in.Hg (1016 mB)
Relative humidity93 %
Density altitude1,555 ft. (474 m)
Sea-level pressure101.6 kPa (1016 mB, 29.99 in.Hg)
Max temp last 6 hours26.7°C (80.1°F)
Min temp last 6 hours25.0°C (77.0°F)
Remarks Automated weather observing station with precipitation discriminator
Pressure falling more slowly
Flight conditions Visual Meteorological Conditions
Raw dataKORD 231151Z 21006KT 6SM BR FEW020 FEW140 26/24 A3001 RMK AO2 SLP156 T02560244 10267 20250 56004
An error has occurred. This application may no longer respond until reloaded. Reload 🗙